Underkhaan, Mongolia
Current Conditions -  °F | °C
As of 6:30 PM on Saturday 22 Nov 2014 (Local Time) from ZMUB Reporting Station
Clear Clear  
Wind Chill: -2°   Ceiling: Unl
Heat Index: 10°   Visibility: 6mi
Dew Point: -4°   Wind: 9mph
Humidity: 52%   Direction: 170°S
Pressure: 29.83"   Gusts: NA
Location:  47.32°N, 110.63°E
Report Text: ZMUB 221030Z 17004MPS CAVOK M12/M20 Q1010 NOSIG RMK QFE650.9 49
Loading
Personal Weather Stations






























Interactive Weather Map New forecast layout! Learn more

10-Day Weather Forecast

Advertisements
Track Severe Weather on mobile